sensor_id;sensor_type;location;lat;lon;timestamp;P1;durP1;ratioP1;P2;durP2;ratioP2
78207;SDS011;67481;50.244;18.288;2023-04-01T00:01:29;16.80;;;7.57;;
78207;SDS011;67481;50.244;18.288;2023-04-01T00:04:15;15.90;;;7.18;;
78207;SDS011;67481;50.244;18.288;2023-04-01T00:07:01;16.17;;;6.95;;
78207;SDS011;67481;50.244;18.288;2023-04-01T00:09:48;15.82;;;6.85;;
78207;SDS011;67481;50.244;18.288;2023-04-01T00:12:33;17.00;;;7.45;;
78207;SDS011;67481;50.244;18.288;2023-04-01T00:15:19;15.82;;;6.75;;
78207;SDS011;67481;50.244;18.288;2023-04-01T00:18:05;14.48;;;6.50;;
78207;SDS011;67481;50.244;18.288;2023-04-01T00:20:52;14.10;;;6.45;;
78207;SDS011;67481;50.244;18.288;2023-04-01T00:23:37;15.82;;;6.75;;
78207;SDS011;67481;50.244;18.288;2023-04-01T00:26:23;14.93;;;6.68;;
78207;SDS011;67481;50.244;18.288;2023-04-01T00:29:09;14.82;;;6.45;;
78207;SDS011;67481;50.244;18.288;2023-04-01T00:31:56;21.52;;;10.93;;
78207;SDS011;67481;50.244;18.288;2023-04-01T00:34:43;15.70;;;7.82;;
78207;SDS011;67481;50.244;18.288;2023-04-01T00:37:30;14.85;;;7.80;;
78207;SDS011;67481;50.244;18.288;2023-04-01T00:40:23;16.15;;;8.25;;
78207;SDS011;67481;50.244;18.288;2023-04-01T00:43:18;16.63;;;8.32;;
78207;SDS011;67481;50.244;18.288;2023-04-01T00:46:05;26.13;;;10.82;;
78207;SDS011;67481;50.244;18.288;2023-04-01T00:48:51;18.92;;;8.27;;
78207;SDS011;67481;50.244;18.288;2023-04-01T00:51:40;16.77;;;8.00;;
78207;SDS011;67481;50.244;18.288;2023-04-01T00:54:26;16.13;;;7.18;;
78207;SDS011;67481;50.244;18.288;2023-04-01T00:57:23;17.15;;;7.68;;
78207;SDS011;67481;50.244;18.288;2023-04-01T01:00:13;16.55;;;7.15;;
78207;SDS011;67481;50.244;18.288;2023-04-01T01:03:00;15.98;;;7.50;;
78207;SDS011;67481;50.244;18.288;2023-04-01T01:18:23;13.35;;;6.28;;
78207;SDS011;67481;50.244;18.288;2023-04-01T01:25:01;15.02;;;6.38;;
78207;SDS011;67481;50.244;18.288;2023-04-01T01:31:22;15.55;;;6.78;;
78207;SDS011;67481;50.244;18.288;2023-04-01T01:37:46;12.85;;;6.07;;
78207;SDS011;67481;50.244;18.288;2023-04-01T01:40:34;13.20;;;5.90;;
78207;SDS011;67481;50.244;18.288;2023-04-01T01:43:23;13.43;;;5.57;;
78207;SDS011;67481;50.244;18.288;2023-04-01T01:46:11;13.43;;;5.82;;
78207;SDS011;67481;50.244;18.288;2023-04-01T01:49:00;13.70;;;6.38;;
78207;SDS011;67481;50.244;18.288;2023-04-01T01:51:47;14.23;;;5.82;;
78207;SDS011;67481;50.244;18.288;2023-04-01T01:54:33;11.98;;;5.65;;
78207;SDS011;67481;50.244;18.288;2023-04-01T01:57:20;12.93;;;5.80;;
78207;SDS011;67481;50.244;18.288;2023-04-01T02:00:10;12.50;;;4.88;;
78207;SDS011;67481;50.244;18.288;2023-04-01T02:03:02;11.07;;;4.85;;
78207;SDS011;67481;50.244;18.288;2023-04-01T02:05:49;13.55;;;5.40;;
78207;SDS011;67481;50.244;18.288;2023-04-01T02:11:30;10.77;;;5.45;;
78207;SDS011;67481;50.244;18.288;2023-04-01T02:14:20;11.73;;;5.13;;
78207;SDS011;67481;50.244;18.288;2023-04-01T02:17:18;10.85;;;4.53;;
78207;SDS011;67481;50.244;18.288;2023-04-01T02:20:16;11.05;;;4.82;;
78207;SDS011;67481;50.244;18.288;2023-04-01T02:23:04;10.63;;;4.30;;
78207;SDS011;67481;50.244;18.288;2023-04-01T02:25:49;12.00;;;4.75;;
78207;SDS011;67481;50.244;18.288;2023-04-01T02:28:36;11.35;;;4.78;;
78207;SDS011;67481;50.244;18.288;2023-04-01T02:31:23;11.85;;;4.45;;
78207;SDS011;67481;50.244;18.288;2023-04-01T02:34:10;14.23;;;4.95;;
78207;SDS011;67481;50.244;18.288;2023-04-01T02:36:56;12.00;;;4.38;;
78207;SDS011;67481;50.244;18.288;2023-04-01T02:39:42;10.27;;;4.55;;
78207;SDS011;67481;50.244;18.288;2023-04-01T02:42:28;13.23;;;5.40;;
78207;SDS011;67481;50.244;18.288;2023-04-01T02:45:14;10.70;;;4.93;;
78207;SDS011;67481;50.244;18.288;2023-04-01T02:48:00;10.82;;;4.95;;
78207;SDS011;67481;50.244;18.288;2023-04-01T02:50:46;10.57;;;4.25;;
78207;SDS011;67481;50.244;18.288;2023-04-01T02:53:31;12.95;;;4.72;;
78207;SDS011;67481;50.244;18.288;2023-04-01T02:56:16;8.98;;;3.92;;
78207;SDS011;67481;50.244;18.288;2023-04-01T02:59:03;10.85;;;4.82;;
78207;SDS011;67481;50.244;18.288;2023-04-01T03:01:49;9.95;;;4.32;;
78207;SDS011;67481;50.244;18.288;2023-04-01T03:04:34;10.10;;;4.05;;
78207;SDS011;67481;50.244;18.288;2023-04-01T03:07:20;9.05;;;3.30;;
78207;SDS011;67481;50.244;18.288;2023-04-01T03:10:07;12.02;;;4.45;;
78207;SDS011;67481;50.244;18.288;2023-04-01T03:12:53;11.35;;;4.38;;
78207;SDS011;67481;50.244;18.288;2023-04-01T03:15:38;7.93;;;3.70;;
78207;SDS011;67481;50.244;18.288;2023-04-01T03:18:24;11.65;;;4.20;;
78207;SDS011;67481;50.244;18.288;2023-04-01T03:21:13;10.02;;;4.53;;
78207;SDS011;67481;50.244;18.288;2023-04-01T03:24:07;10.43;;;3.85;;
78207;SDS011;67481;50.244;18.288;2023-04-01T03:26:53;8.90;;;3.55;;
78207;SDS011;67481;50.244;18.288;2023-04-01T03:29:39;7.70;;;3.42;;
78207;SDS011;67481;50.244;18.288;2023-04-01T03:32:26;7.75;;;3.45;;
78207;SDS011;67481;50.244;18.288;2023-04-01T03:35:12;8.20;;;3.72;;
78207;SDS011;67481;50.244;18.288;2023-04-01T03:37:57;8.10;;;3.40;;
78207;SDS011;67481;50.244;18.288;2023-04-01T03:40:44;8.60;;;4.00;;
78207;SDS011;67481;50.244;18.288;2023-04-01T03:43:30;9.93;;;4.00;;
78207;SDS011;67481;50.244;18.288;2023-04-01T03:46:17;8.55;;;3.55;;
78207;SDS011;67481;50.244;18.288;2023-04-01T03:49:08;7.95;;;3.10;;
78207;SDS011;67481;50.244;18.288;2023-04-01T03:51:57;8.30;;;3.85;;
78207;SDS011;67481;50.244;18.288;2023-04-01T03:54:42;9.02;;;3.50;;
78207;SDS011;67481;50.244;18.288;2023-04-01T03:57:30;8.43;;;3.67;;
78207;SDS011;67481;50.244;18.288;2023-04-01T04:00:22;10.00;;;4.60;;
78207;SDS011;67481;50.244;18.288;2023-04-01T04:03:12;12.52;;;4.70;;
78207;SDS011;67481;50.244;18.288;2023-04-01T04:05:58;9.60;;;4.05;;
78207;SDS011;67481;50.244;18.288;2023-04-01T04:08:44;7.60;;;3.85;;
78207;SDS011;67481;50.244;18.288;2023-04-01T04:11:31;10.75;;;4.40;;
78207;SDS011;67481;50.244;18.288;2023-04-01T04:14:18;10.23;;;4.43;;
78207;SDS011;67481;50.244;18.288;2023-04-01T04:17:05;10.48;;;4.18;;
78207;SDS011;67481;50.244;18.288;2023-04-01T04:19:51;10.50;;;3.83;;
78207;SDS011;67481;50.244;18.288;2023-04-01T04:22:37;9.82;;;4.97;;
78207;SDS011;67481;50.244;18.288;2023-04-01T04:25:25;10.10;;;4.30;;
78207;SDS011;67481;50.244;18.288;2023-04-01T04:28:11;10.02;;;4.18;;
78207;SDS011;67481;50.244;18.288;2023-04-01T04:30:57;9.07;;;3.97;;
78207;SDS011;67481;50.244;18.288;2023-04-01T04:33:43;10.77;;;4.25;;
78207;SDS011;67481;50.244;18.288;2023-04-01T04:36:29;10.18;;;3.75;;
78207;SDS011;67481;50.244;18.288;2023-04-01T04:39:15;8.63;;;3.90;;
78207;SDS011;67481;50.244;18.288;2023-04-01T04:42:01;9.20;;;3.40;;
78207;SDS011;67481;50.244;18.288;2023-04-01T04:44:47;9.45;;;3.55;;
78207;SDS011;67481;50.244;18.288;2023-04-01T04:47:33;8.13;;;3.28;;
78207;SDS011;67481;50.244;18.288;2023-04-01T04:50:19;9.43;;;4.03;;
78207;SDS011;67481;50.244;18.288;2023-04-01T04:53:04;8.82;;;3.75;;
78207;SDS011;67481;50.244;18.288;2023-04-01T04:55:51;11.07;;;4.63;;
78207;SDS011;67481;50.244;18.288;2023-04-01T04:58:54;9.38;;;3.63;;
78207;SDS011;67481;50.244;18.288;2023-04-01T05:01:51;7.93;;;3.55;;
78207;SDS011;67481;50.244;18.288;2023-04-01T05:04:37;8.80;;;3.33;;
78207;SDS011;67481;50.244;18.288;2023-04-01T05:07:26;7.57;;;3.60;;
78207;SDS011;67481;50.244;18.288;2023-04-01T05:10:12;10.10;;;4.10;;
78207;SDS011;67481;50.244;18.288;2023-04-01T05:12:58;10.13;;;3.67;;
78207;SDS011;67481;50.244;18.288;2023-04-01T05:15:44;8.25;;;3.25;;
78207;SDS011;67481;50.244;18.288;2023-04-01T05:18:30;9.95;;;4.22;;
78207;SDS011;67481;50.244;18.288;2023-04-01T05:21:16;9.88;;;3.67;;
78207;SDS011;67481;50.244;18.288;2023-04-01T05:24:01;13.32;;;5.88;;
78207;SDS011;67481;50.244;18.288;2023-04-01T05:29:34;12.35;;;4.28;;
78207;SDS011;67481;50.244;18.288;2023-04-01T05:32:24;10.13;;;3.55;;
78207;SDS011;67481;50.244;18.288;2023-04-01T05:35:10;9.75;;;3.83;;
78207;SDS011;67481;50.244;18.288;2023-04-01T05:37:56;9.05;;;4.07;;
78207;SDS011;67481;50.244;18.288;2023-04-01T05:40:41;10.73;;;4.75;;
78207;SDS011;67481;50.244;18.288;2023-04-01T05:43:27;9.88;;;4.13;;
78207;SDS011;67481;50.244;18.288;2023-04-01T05:46:14;9.73;;;4.40;;
78207;SDS011;67481;50.244;18.288;2023-04-01T05:49:08;10.35;;;4.65;;
78207;SDS011;67481;50.244;18.288;2023-04-01T05:51:54;9.93;;;3.92;;
78207;SDS011;67481;50.244;18.288;2023-04-01T05:54:43;8.57;;;3.63;;
78207;SDS011;67481;50.244;18.288;2023-04-01T05:57:28;8.15;;;3.47;;
78207;SDS011;67481;50.244;18.288;2023-04-01T06:00:14;9.55;;;4.20;;
78207;SDS011;67481;50.244;18.288;2023-04-01T06:03:01;8.18;;;3.72;;
78207;SDS011;67481;50.244;18.288;2023-04-01T06:05:47;10.20;;;5.15;;
78207;SDS011;67481;50.244;18.288;2023-04-01T06:08:43;10.02;;;5.25;;
78207;SDS011;67481;50.244;18.288;2023-04-01T06:17:37;9.55;;;3.95;;
78207;SDS011;67481;50.244;18.288;2023-04-01T06:20:40;8.07;;;2.97;;
78207;SDS011;67481;50.244;18.288;2023-04-01T06:23:39;8.52;;;3.70;;
78207;SDS011;67481;50.244;18.288;2023-04-01T06:29:42;8.98;;;3.72;;
78207;SDS011;67481;50.244;18.288;2023-04-01T06:39:13;14.38;;;5.50;;
78207;SDS011;67481;50.244;18.288;2023-04-01T06:49:02;9.07;;;3.67;;
78207;SDS011;67481;50.244;18.288;2023-04-01T06:52:26;8.55;;;3.67;;
78207;SDS011;67481;50.244;18.288;2023-04-01T06:55:55;8.02;;;3.40;;
78207;SDS011;67481;50.244;18.288;2023-04-01T07:01:55;8.68;;;3.83;;
78207;SDS011;67481;50.244;18.288;2023-04-01T07:04:44;10.35;;;3.40;;
78207;SDS011;67481;50.244;18.288;2023-04-01T07:23:22;10.07;;;3.72;;
78207;SDS011;67481;50.244;18.288;2023-04-01T07:26:31;8.25;;;3.58;;
78207;SDS011;67481;50.244;18.288;2023-04-01T07:29:34;12.02;;;4.10;;
78207;SDS011;67481;50.244;18.288;2023-04-01T07:32:27;10.65;;;4.05;;
78207;SDS011;67481;50.244;18.288;2023-04-01T07:50:17;7.95;;;3.40;;
78207;SDS011;67481;50.244;18.288;2023-04-01T07:53:11;8.52;;;3.63;;
78207;SDS011;67481;50.244;18.288;2023-04-01T07:56:23;8.82;;;3.55;;
78207;SDS011;67481;50.244;18.288;2023-04-01T08:08:47;8.63;;;3.08;;
78207;SDS011;67481;50.244;18.288;2023-04-01T08:12:37;8.52;;;3.25;;
78207;SDS011;67481;50.244;18.288;2023-04-01T08:21:58;8.52;;;2.72;;
78207;SDS011;67481;50.244;18.288;2023-04-01T08:24:50;7.88;;;2.75;;
78207;SDS011;67481;50.244;18.288;2023-04-01T08:27:44;8.57;;;3.42;;
78207;SDS011;67481;50.244;18.288;2023-04-01T08:33:28;7.97;;;2.67;;
78207;SDS011;67481;50.244;18.288;2023-04-01T08:36:40;6.95;;;2.55;;
78207;SDS011;67481;50.244;18.288;2023-04-01T08:39:42;6.88;;;2.50;;
78207;SDS011;67481;50.244;18.288;2023-04-01T08:49:17;8.43;;;2.42;;
78207;SDS011;67481;50.244;18.288;2023-04-01T08:52:35;7.15;;;2.45;;
78207;SDS011;67481;50.244;18.288;2023-04-01T08:55:31;9.88;;;3.10;;
78207;SDS011;67481;50.244;18.288;2023-04-01T09:40:53;5.68;;;2.03;;
78207;SDS011;67481;50.244;18.288;2023-04-01T09:44:03;6.75;;;2.08;;
78207;SDS011;67481;50.244;18.288;2023-04-01T09:50:29;7.00;;;1.85;;
78207;SDS011;67481;50.244;18.288;2023-04-01T10:18:43;4.38;;;1.35;;
78207;SDS011;67481;50.244;18.288;2023-04-01T10:41:33;5.18;;;1.50;;
78207;SDS011;67481;50.244;18.288;2023-04-01T10:45:01;5.50;;;1.63;;
78207;SDS011;67481;50.244;18.288;2023-04-01T11:31:37;5.93;;;1.52;;
78207;SDS011;67481;50.244;18.288;2023-04-01T11:38:03;4.38;;;1.40;;
78207;SDS011;67481;50.244;18.288;2023-04-01T11:44:39;6.43;;;1.65;;
78207;SDS011;67481;50.244;18.288;2023-04-01T12:09:22;6.35;;;1.73;;
78207;SDS011;67481;50.244;18.288;2023-04-01T12:15:23;6.22;;;1.65;;
78207;SDS011;67481;50.244;18.288;2023-04-01T12:18:41;5.47;;;1.65;;
78207;SDS011;67481;50.244;18.288;2023-04-01T12:21:38;4.20;;;1.25;;
78207;SDS011;67481;50.244;18.288;2023-04-01T12:34:09;5.03;;;1.45;;
78207;SDS011;67481;50.244;18.288;2023-04-01T12:37:03;4.88;;;1.42;;
78207;SDS011;67481;50.244;18.288;2023-04-01T12:40:06;5.22;;;1.58;;
78207;SDS011;67481;50.244;18.288;2023-04-01T12:58:23;3.95;;;1.10;;
78207;SDS011;67481;50.244;18.288;2023-04-01T13:05:02;3.83;;;1.13;;
78207;SDS011;67481;50.244;18.288;2023-04-01T13:08:17;5.15;;;1.33;;
78207;SDS011;67481;50.244;18.288;2023-04-01T13:11:24;5.00;;;1.40;;
78207;SDS011;67481;50.244;18.288;2023-04-01T13:26:27;5.93;;;1.33;;
78207;SDS011;67481;50.244;18.288;2023-04-01T13:29:14;4.22;;;1.20;;
78207;SDS011;67481;50.244;18.288;2023-04-01T13:35:11;4.93;;;1.50;;
78207;SDS011;67481;50.244;18.288;2023-04-01T13:44:28;5.18;;;1.35;;
78207;SDS011;67481;50.244;18.288;2023-04-01T14:18:28;5.95;;;1.60;;
78207;SDS011;67481;50.244;18.288;2023-04-01T14:24:52;5.85;;;1.85;;
78207;SDS011;67481;50.244;18.288;2023-04-01T14:49:52;7.10;;;2.42;;
78207;SDS011;67481;50.244;18.288;2023-04-01T14:52:42;7.55;;;2.35;;
78207;SDS011;67481;50.244;18.288;2023-04-01T14:58:24;6.47;;;2.00;;
78207;SDS011;67481;50.244;18.288;2023-04-01T15:01:45;7.43;;;2.47;;
78207;SDS011;67481;50.244;18.288;2023-04-01T15:04:53;8.52;;;3.13;;
78207;SDS011;67481;50.244;18.288;2023-04-01T15:19:42;8.98;;;2.97;;
78207;SDS011;67481;50.244;18.288;2023-04-01T15:22:39;8.48;;;3.00;;
78207;SDS011;67481;50.244;18.288;2023-04-01T15:32:05;6.05;;;2.58;;
78207;SDS011;67481;50.244;18.288;2023-04-01T15:35:19;7.65;;;2.72;;
78207;SDS011;67481;50.244;18.288;2023-04-01T15:47:45;7.78;;;2.78;;
78207;SDS011;67481;50.244;18.288;2023-04-01T15:50:44;6.78;;;3.10;;
78207;SDS011;67481;50.244;18.288;2023-04-01T15:53:56;6.80;;;2.63;;
78207;SDS011;67481;50.244;18.288;2023-04-01T16:03:15;6.88;;;2.65;;
78207;SDS011;67481;50.244;18.288;2023-04-01T16:09:23;8.38;;;2.75;;
78207;SDS011;67481;50.244;18.288;2023-04-01T16:12:30;6.55;;;2.33;;
78207;SDS011;67481;50.244;18.288;2023-04-01T16:15:57;6.72;;;2.72;;
78207;SDS011;67481;50.244;18.288;2023-04-01T16:18:51;7.40;;;2.75;;
78207;SDS011;67481;50.244;18.288;2023-04-01T16:24:46;7.80;;;3.00;;
78207;SDS011;67481;50.244;18.288;2023-04-01T16:28:13;7.65;;;2.95;;
78207;SDS011;67481;50.244;18.288;2023-04-01T16:31:00;7.85;;;3.08;;
78207;SDS011;67481;50.244;18.288;2023-04-01T16:37:21;7.38;;;2.97;;
78207;SDS011;67481;50.244;18.288;2023-04-01T16:43:51;8.95;;;3.47;;
78207;SDS011;67481;50.244;18.288;2023-04-01T16:47:19;7.95;;;3.10;;
78207;SDS011;67481;50.244;18.288;2023-04-01T17:02:08;13.82;;;5.63;;
78207;SDS011;67481;50.244;18.288;2023-04-01T17:05:08;11.88;;;5.32;;
78207;SDS011;67481;50.244;18.288;2023-04-01T17:08:10;9.07;;;3.78;;
78207;SDS011;67481;50.244;18.288;2023-04-01T17:11:45;10.93;;;4.68;;
78207;SDS011;67481;50.244;18.288;2023-04-01T17:18:00;13.68;;;5.40;;
78207;SDS011;67481;50.244;18.288;2023-04-01T17:21:00;11.13;;;4.75;;
78207;SDS011;67481;50.244;18.288;2023-04-01T17:32:55;15.90;;;5.72;;
78207;SDS011;67481;50.244;18.288;2023-04-01T17:35:56;25.13;;;7.50;;
78207;SDS011;67481;50.244;18.288;2023-04-01T17:39:29;37.90;;;10.93;;
78207;SDS011;67481;50.244;18.288;2023-04-01T18:00:18;8.60;;;3.08;;
78207;SDS011;67481;50.244;18.288;2023-04-01T18:03:22;6.85;;;2.40;;
78207;SDS011;67481;50.244;18.288;2023-04-01T18:06:14;9.93;;;3.90;;
78207;SDS011;67481;50.244;18.288;2023-04-01T18:12:18;14.50;;;6.13;;
78207;SDS011;67481;50.244;18.288;2023-04-01T18:15:36;21.27;;;9.18;;
78207;SDS011;67481;50.244;18.288;2023-04-01T18:21:48;22.27;;;11.98;;
78207;SDS011;67481;50.244;18.288;2023-04-01T18:24:48;20.02;;;8.98;;
78207;SDS011;67481;50.244;18.288;2023-04-01T18:27:41;21.67;;;8.90;;
78207;SDS011;67481;50.244;18.288;2023-04-01T18:30:32;20.63;;;9.07;;
78207;SDS011;67481;50.244;18.288;2023-04-01T18:33:25;199.25;;;37.45;;
78207;SDS011;67481;50.244;18.288;2023-04-01T18:42:06;44.33;;;16.98;;
78207;SDS011;67481;50.244;18.288;2023-04-01T18:54:46;28.77;;;10.65;;
78207;SDS011;67481;50.244;18.288;2023-04-01T18:58:20;20.77;;;7.53;;
78207;SDS011;67481;50.244;18.288;2023-04-01T19:04:25;20.02;;;8.63;;
78207;SDS011;67481;50.244;18.288;2023-04-01T19:20:37;48.55;;;16.48;;
78207;SDS011;67481;50.244;18.288;2023-04-01T19:33:22;16.52;;;7.30;;
78207;SDS011;67481;50.244;18.288;2023-04-01T19:36:36;21.33;;;7.93;;
78207;SDS011;67481;50.244;18.288;2023-04-01T19:46:17;46.63;;;16.17;;
78207;SDS011;67481;50.244;18.288;2023-04-01T19:49:17;75.78;;;20.80;;
78207;SDS011;67481;50.244;18.288;2023-04-01T19:55:30;68.80;;;19.27;;
78207;SDS011;67481;50.244;18.288;2023-04-01T19:59:04;59.92;;;16.50;;
78207;SDS011;67481;50.244;18.288;2023-04-01T20:01:51;41.70;;;14.52;;
78207;SDS011;67481;50.244;18.288;2023-04-01T20:04:53;37.55;;;13.73;;
78207;SDS011;67481;50.244;18.288;2023-04-01T20:07:51;27.90;;;11.85;;
78207;SDS011;67481;50.244;18.288;2023-04-01T20:19:53;78.20;;;37.42;;
78207;SDS011;67481;50.244;18.288;2023-04-01T20:32:24;78.10;;;36.85;;
78207;SDS011;67481;50.244;18.288;2023-04-01T20:41:26;71.55;;;33.13;;
78207;SDS011;67481;50.244;18.288;2023-04-01T21:09:48;108.53;;;48.28;;
78207;SDS011;67481;50.244;18.288;2023-04-01T21:12:52;108.43;;;44.88;;
78207;SDS011;67481;50.244;18.288;2023-04-01T21:18:55;101.70;;;41.92;;
78207;SDS011;67481;50.244;18.288;2023-04-01T21:34:34;82.90;;;35.17;;
78207;SDS011;67481;50.244;18.288;2023-04-01T21:55:58;67.35;;;28.15;;
78207;SDS011;67481;50.244;18.288;2023-04-01T22:04:49;55.33;;;25.75;;
78207;SDS011;67481;50.244;18.288;2023-04-01T22:14:29;49.30;;;20.92;;
78207;SDS011;67481;50.244;18.288;2023-04-01T22:17:22;46.63;;;20.02;;
78207;SDS011;67481;50.244;18.288;2023-04-01T22:26:09;41.42;;;17.95;;
78207;SDS011;67481;50.244;18.288;2023-04-01T22:44:58;40.58;;;18.60;;
78207;SDS011;67481;50.244;18.288;2023-04-01T22:50:54;42.50;;;17.92;;
78207;SDS011;67481;50.244;18.288;2023-04-01T22:54:04;36.13;;;17.40;;
78207;SDS011;67481;50.244;18.288;2023-04-01T22:57:14;41.58;;;19.05;;
78207;SDS011;67481;50.244;18.288;2023-04-01T23:00:10;39.33;;;17.88;;
78207;SDS011;67481;50.244;18.288;2023-04-01T23:05:54;39.90;;;17.83;;
78207;SDS011;67481;50.244;18.288;2023-04-01T23:12:17;35.05;;;15.77;;
78207;SDS011;67481;50.244;18.288;2023-04-01T23:14:54;35.83;;;16.75;;
78207;SDS011;67481;50.244;18.288;2023-04-01T23:29:43;29.40;;;12.65;;
78207;SDS011;67481;50.244;18.288;2023-04-01T23:32:28;31.58;;;13.85;;
78207;SDS011;67481;50.244;18.288;2023-04-01T23:35:15;31.23;;;13.55;;
78207;SDS011;67481;50.244;18.288;2023-04-01T23:38:02;29.73;;;14.10;;
78207;SDS011;67481;50.244;18.288;2023-04-01T23:40:49;29.48;;;14.93;;
78207;SDS011;67481;50.244;18.288;2023-04-01T23:43:37;30.10;;;14.95;;
78207;SDS011;67481;50.244;18.288;2023-04-01T23:46:24;29.90;;;14.63;;
78207;SDS011;67481;50.244;18.288;2023-04-01T23:49:12;29.55;;;14.85;;
78207;SDS011;67481;50.244;18.288;2023-04-01T23:52:20;31.38;;;15.30;;
78207;SDS011;67481;50.244;18.288;2023-04-01T23:55:27;35.53;;;15.68;;
78207;SDS011;67481;50.244;18.288;2023-04-01T23:58:23;37.95;;;15.73;;
